Decoded Metar for LEAG (Algeciras in SPAIN) (IATA:N/A) | Meteo·Mobile Aviation Weather
aviador You're here:

LEAG Decoded Metar

Algeciras in SPAIN
Report Time2019-05-21 15:00:00
UTC Time2019-05-21 15:18:54
Flight Rules vfr VFR
WindVRB at 10 kt
Visibility9999 m
Phenomena:N/A
Clouds:N/A
Expected CloudBase > 5,600 ft AGL from Temp-Dew spread
CeilingNone
Temp25°C
Dew Point11°C (42% RH)
AAT21.8°C
QNH1014 hPa
Raw Report
METAR LEAG 211500Z AUTO VRB10KT CAVOK 25/11 Q1014=

Extra information for LEAG:More info

Metar Taf Metar & Taf Last 4 Metars F.Rules Stats Wind Profile Meteogram Temp Stats Airport Information Weather charts Add Link Nearby VenuesMetar ALERT Operation Metar Decoded Social comments